Data for 06/13/2015

Time Sea-Level Adjusted Pressure Absolute Pressure Temperature Relative Humidity Dew Point   
(mb) (inHg) (mb) (inHg) (C) (F) (%) (C) (F)
00:05 1015 29.97 844 24.92 14.6 58.3 29 -3.3 26
00:10 1015 29.97 844 24.92 14.5 58.1 30 -2.6 27.3
00:15 1015 29.97 844 24.92 14.3 57.7 31 -2.6 27.3
00:20 1015 29.97 844 24.92 14 57.3 33 -1.8 28.7
00:25 1015 29.97 844 24.92 13.5 56.2 35 -1.5 29.3
00:30 1015 29.97 844 24.92 13.2 55.8 33 -2.7 27.2
00:35 1015 29.97 844 24.92 13.3 56 33 -2.5 27.5
00:40 1015 29.97 844 24.92 13.2 55.8 32 -2.9 26.8
00:45 1015 29.97 844 24.92 13.1 55.5 33 -2.6 27.3
00:50 1015 29.97 844 24.92 12.7 54.9 33 -3 26.6
00:55 1015 29.97 844 24.92 12.7 54.8 35 -2.3 27.8
01:00 1015 29.97 845 24.95 12.6 54.6 35 -2.4 27.7
01:05 1015 29.97 845 24.95 12.5 54.5 34 -2.7 27.1
01:10 1015 29.97 845 24.95 12.5 54.5 34 -2.8 27
01:15 1015 29.97 845 24.95 12.4 54.3 35 -2.6 27.3
01:20 1015 29.97 845 24.95 12.4 54.2 35 -2.7 27.2
01:25 1015 29.97 845 24.95 12.2 54 33 -3.4 26
01:30 1015 29.97 845 24.95 12.5 54.4 31 -4.1 24.5
01:35 1015 29.97 845 24.95 13.2 55.7 30 -4 24.8
01:40 1016 30 845 24.95 13.3 55.9 32 -3.2 26.2
01:45 1016 30 845 24.95 12.7 54.9 35 -2.1 28.2
01:50 1016 30 845 24.95 12.1 53.9 35 -2.8 27
01:55 1016 30 845 24.95 11.7 53.1 40 -1.3 29.6
02:00 1016 30 845 24.95 10.9 51.6 43 -1.2 29.9
02:05 1016 30 845 24.95 10.5 50.8 38 -3.2 26.3
02:10 1016 30 845 24.95 10.9 51.5 39 -2.7 27.2
02:15 1016 30 845 24.95 10.8 51.4 40 -2.2 28.1
02:20 1016 30 845 24.95 10.5 50.8 41 -2.2 28
02:25 1016 30 845 24.95 10.2 50.4 40 -2.8 27
02:30 1016 30 845 24.95 10.6 51 37 -3.6 25.5
02:35 1016 30 845 24.95 10.9 51.7 36 -3.4 25.9
02:40 1016 30 845 24.95 10.8 51.5 38 -3 26.6
02:45 1016 30 845 24.95 10.9 51.7 36 -3.7 25.4
02:50 1016 30 845 24.95 11.3 52.3 33 -4.4 24.1
02:55 1016 30 845 24.95 11.5 52.6 33 -4.2 24.4
03:00 1016 30 845 24.95 11.5 52.7 38 -2.4 27.7
03:05 1016 30 845 24.95 10.4 50.8 42 -2 28.5
03:10 1016 30 845 24.95 9.9 49.8 41 -2.6 27.4
03:15 1016 30 845 24.95 10 49.9 42 -2.3 27.8
03:20 1016 30 845 24.95 9.8 49.6 42 -2.5 27.5
03:25 1016 30 845 24.95 9.5 49.1 43 -2.3 27.9
03:30 1016 30 845 24.95 9.5 49.1 41 -3 26.6
03:35 1016 30 845 24.95 9.7 49.5 41 -2.9 26.7
03:40 1016 30 846 24.98 9.9 49.8 40 -3 26.6
03:45 1016 30 846 24.98 9.9 49.7 42 -2.5 27.5
03:50 1016 30 846 24.98 9.6 49.3 43 -2.5 27.6
03:55 1016 30 846 24.98 9.3 48.7 44 -2.3 27.8
04:00 1016 30 846 24.98 8.9 48.1 45 -2.3 27.8
04:05 1017 30.03 846 24.98 8.5 47.3 47 -2.1 28.3
04:10 1017 30.03 846 24.98 8.1 46.7 50 -1.7 29
04:15 1017 30.03 846 24.98 7.7 45.9 51 -1.7 28.9
04:20 1017 30.03 846 24.98 7.5 45.6 50 -2.2 28.1
04:25 1017 30.03 846 24.98 7.6 45.7 48 -2.7 27.2
04:30 1017 30.03 846 24.98 7.9 46.2 48 -2.5 27.6
04:35 1017 30.03 846 24.98 8 46.4 46 -2.9 26.7
04:40 1017 30.03 846 24.98 8.2 46.8 46 -2.7 27.1
04:45 1017 30.03 846 24.98 8.1 46.7 46 -2.9 26.8
04:50 1017 30.03 846 24.98 8.1 46.5 46 -2.7 27.1
04:55 1017 30.03 846 24.98 8.1 46.5 47 -2.7 27.2
05:00 1017 30.03 846 24.98 8.1 46.6 48 -2.3 27.9
05:05 1017 30.03 846 24.98 8.2 46.7 48 -2.1 28.3
05:10 1017 30.03 846 24.98 8.2 46.7 48 -2.1 28.2
05:15 1017 30.03 846 24.98 8.6 47.5 46 -2.3 27.8
05:20 1017 30.03 846 24.98 8.8 47.8 46 -2.1 28.3
05:25 1017 30.03 846 24.98 9.1 48.3 46 -1.8 28.7
05:30 1017 30.03 846 24.98 9.1 48.4 46 -1.8 28.7
05:35 1017 30.03 846 24.98 9.5 49.2 44 -2.1 28.2
05:40 1017 30.03 846 24.98 10 49.9 49 -0.3 31.4
05:45 1017 30.03 846 24.98 8.9 48.1 50 -0.8 30.5
05:50 1017 30.03 846 24.98 8.7 47.6 49 -1.5 29.3
05:55 1017 30.03 846 24.98 8.9 48.1 48 -1.3 29.6
06:00 1017 30.03 846 24.98 9.5 49 46 -1.6 29.2
06:05 1017 30.03 846 24.98 9.9 49.7 45 -1.4 29.4
06:10 1017 30.03 846 24.98 10.1 50.2 45 -1.2 29.9
06:15 1017 30.03 846 24.98 10.3 50.6 45 -1.1 30.1
06:20 1017 30.03 846 24.98 10.6 51 44 -1.3 29.7
06:25 1017 30.03 847 25.01 10.8 51.4 43 -1.2 29.8
06:30 1017 30.03 847 25.01 11.1 52 42 -1.3 29.6
06:35 1017 30.03 847 25.01 11.2 52.2 42 -1.3 29.6
06:40 1017 30.03 847 25.01 11.5 52.7 42 -1.1 30.1
06:45 1017 30.03 847 25.01 11.9 53.4 42 -0.7 30.7
06:50 1017 30.03 847 25.01 12.3 54.1 41 -0.5 31.1
06:55 1017 30.03 846 24.98 12.8 55.1 40 -0.4 31.3
07:00 1017 30.03 846 24.98 13.4 56.2 38 -0.5 31.1
07:05 1017 30.03 846 24.98 13.8 56.9 35 -1.4 29.5
07:10 1017 30.03 846 24.98 13.9 57 36 -1 30.2
07:15 1017 30.03 846 24.98 14.1 57.4 37 -0.3 31.4
07:20 1017 30.03 846 24.98 14.4 57.9 33 -1.4 29.5
07:25 1017 30.03 846 24.98 14.8 58.6 31 -2.1 28.2
07:30 1017 30.03 846 24.98 15.5 59.8 30 -1.9 28.5
07:35 1017 30.03 846 24.98 15.8 60.4 31 -1.4 29.4
07:40 1017 30.03 846 24.98 16 60.7 30 -1.6 29.1
07:45 1017 30.03 846 24.98 16.4 61.4 29 -1.6 29
07:50 1017 30.03 846 24.98 16.8 62.2 27 -2.5 27.6
07:55 1017 30.03 846 24.98 16.4 61.5 29 -1.7 29
08:00 1017 30.03 846 24.98 16 60.8 26 -3.3 26
08:05 1017 30.03 846 24.98 16.1 60.9 27 -2.8 26.9
08:10 1017 30.03 846 24.98 16.3 61.4 24 -4.1 24.6
08:15 1017 30.03 846 24.98 16.4 61.5 25 -3.6 25.6
08:20 1017 30.03 846 24.98 16.4 61.5 23 -4.6 23.7
08:25 1017 30.03 846 24.98 16.8 62.3 22 -4.8 23.4
08:30 1017 30.03 846 24.98 16.7 62 24 -3.9 24.9
08:35 1017 30.03 846 24.98 16.6 61.9 24 -4.2 24.5
08:40 1017 30.03 846 24.98 17.3 63.2 24 -3.2 26.2
08:45 1017 30.03 846 24.98 17.5 63.5 22 -4.1 24.7
08:50 1017 30.03 846 24.98 17.5 63.5 22 -4.4 24.2
08:55 1017 30.03 846 24.98 17.6 63.7 22 -3.9 24.9
09:00 1017 30.03 846 24.98 17.8 64 22 -4.2 24.4
09:05 1017 30.03 846 24.98 18 64.4 21 -4.8 23.3
09:10 1017 30.03 846 24.98 18.3 64.9 21 -4 24.8
09:15 1017 30.03 846 24.98 18 64.4 22 -3.9 25.1
09:20 1016 30 846 24.98 18.3 64.9 22 -3.8 25.1
09:25 1016 30 846 24.98 18.3 64.9 20 -5 23
09:30 1016 30 846 24.98 18.1 64.5 21 -4.6 23.7
09:35 1016 30 846 24.98 18.6 65.4 19 -5.2 22.7
09:40 1016 30 846 24.98 18.7 65.6 20 -4.9 23.2
09:45 1016 30 846 24.98 18.6 65.5 20 -4.5 24
09:50 1016 30 845 24.95 17.5 63.5 22 -4.5 23.8
09:55 1016 30 845 24.95 18.2 64.7 21 -4.5 23.9
10:00 1016 30 845 24.95 17.3 63.1 21 -4.9 23.2
10:05 1016 30 845 24.95 18 64.3 21 -4.4 24.1
10:10 1016 30 845 24.95 18.7 65.6 21 -4.3 24.3
10:15 1016 30 845 24.95 19.2 66.5 20 -4.2 24.4
10:20 1016 30 845 24.95 19.1 66.3 20 -4.1 24.6
10:25 1016 30 845 24.95 19.4 66.9 21 -3.2 26.3
10:30 1016 30 845 24.95 18.8 65.8 20 -4.8 23.4
10:35 1016 30 845 24.95 18.9 66.1 20 -4.3 24.3
10:40 1016 30 845 24.95 18.9 66 20 -4.3 24.3
10:45 1016 30 845 24.95 19.6 67.3 20 -3.9 25
10:50 1016 30 845 24.95 20 68 19 -4.4 24.1
10:55 1016 30 845 24.95 18.9 66.1 20 -4.3 24.2
11:00 1016 30 845 24.95 19.7 67.5 19 -4.2 24.4
11:05 1016 30 845 24.95 20.1 68.2 20 -3.5 25.7
11:10 1016 30 845 24.95 20.2 68.3 19 -3.9 24.9
11:15 1016 30 845 24.95 20.2 68.4 19 -4.3 24.2
11:20 1016 30 845 24.95 19.9 67.8 20 -3.8 25.2
11:25 1016 30 845 24.95 20.1 68.2 19 -4.4 24.1
11:30 1015 29.97 845 24.95 21.2 70.1 18 -4.1 24.6
11:35 1015 29.97 845 24.95 21.2 70.1 19 -3.3 26
11:40 1015 29.97 845 24.95 21.1 70 19 -3.4 25.9
11:45 1015 29.97 845 24.95 20.8 69.4 20 -3 26.5
11:50 1015 29.97 845 24.95 21.2 70.2 18 -3.9 25
11:55 1015 29.97 844 24.92 21.1 70 19 -3.4 25.9
12:00 1015 29.97 844 24.92 20.7 69.3 20 -3 26.5
12:05 1015 29.97 844 24.92 21.7 71 19 -2.8 26.9
12:10 1015 29.97 844 24.92 21.2 70.1 20 -2.7 27.2
12:15 1015 29.97 844 24.92 21.4 70.5 20 -2.5 27.5
12:20 1015 29.97 844 24.92 21.7 71 19 -2.9 26.9
12:25 1015 29.97 844 24.92 20.6 69.1 21 -2.1 28.3
12:30 1015 29.97 844 24.92 21.4 70.5 19 -3 26.6
12:35 1015 29.97 844 24.92 21.8 71.2 21 -1.1 29.9
12:40 1015 29.97 844 24.92 21 69.8 20 -2.4 27.8
12:45 1015 29.97 844 24.92 20.3 68.5 22 -2 28.4
12:50 1015 29.97 844 24.92 21.2 70.2 20 -2.7 27.2
12:55 1015 29.97 844 24.92 22.1 71.8 18 -3.1 26.5
13:00 1014 29.94 844 24.92 22.5 72.4 20 -1.6 29
13:05 1014 29.94 844 24.92 21.8 71.2 20 -2.1 28.3
13:10 1014 29.94 843 24.89 22.2 71.9 20 -1.9 28.5
13:15 1014 29.94 843 24.89 22.3 72.2 19 -2.1 28.2
13:20 1014 29.94 843 24.89 21.9 71.4 20 -1.7 28.9
13:25 1014 29.94 843 24.89 22.8 73.1 19 -1.8 28.8
13:30 1014 29.94 843 24.89 22.4 72.3 20 -1.7 28.9
13:35 1014 29.94 843 24.89 22.3 72.2 20 -1.8 28.8
13:40 1014 29.94 843 24.89 22.6 72.6 18 -2.4 27.7
13:45 1014 29.94 843 24.89 22.4 72.2 20 -1.7 28.9
13:50 1014 29.94 843 24.89 22.8 73 19 -1.7 28.9
13:55 1014 29.94 843 24.89 21.9 71.4 21 -1.1 30
14:00 1014 29.94 843 24.89 22.3 72.1 20 -1.5 29.4
14:05 1014 29.94 843 24.89 22.8 73.1 19 -1.8 28.8
14:10 1014 29.94 843 24.89 23.4 74.1 18 -2 28.4
14:15 1014 29.94 843 24.89 23.4 74.1 19 -1.3 29.6
14:20 1014 29.94 843 24.89 22.7 72.9 19 -1.8 28.8
14:25 1014 29.94 843 24.89 22.5 72.6 20 -1.1 30
14:30 1014 29.94 843 24.89 22.1 71.7 20 -1.8 28.7
14:35 1014 29.94 843 24.89 22.1 71.7 21 -1.4 29.5
14:40 1014 29.94 843 24.89 22.5 72.5 19 -1.7 28.9
14:45 1014 29.94 843 24.89 21.7 71.1 21 -1.6 29.1
14:50 1014 29.94 843 24.89 22.1 71.7 21 -1.3 29.7
14:55 1013 29.91 843 24.89 22.6 72.7 19 -2 28.3
15:00 1013 29.91 843 24.89 23.7 74.7 19 -1.1 30.1
15:05 1013 29.91 843 24.89 24 75.3 18 -1.5 29.3
15:10 1013 29.91 843 24.89 24.1 75.3 18 -1.3 29.7
15:15 1013 29.91 843 24.89 24.3 75.7 17 -2 28.3
15:20 1013 29.91 843 24.89 24.4 75.9 16 -2.8 26.9
15:25 1013 29.91 843 24.89 24.3 75.8 17 -2.3 27.8
15:30 1013 29.91 843 24.89 24.3 75.8 16 -2.6 27.4
15:35 1013 29.91 843 24.89 24 75.1 16 -3 26.6
15:40 1013 29.91 843 24.89 24.2 75.5 16 -2.8 27
15:45 1013 29.91 843 24.89 23.7 74.7 17 -2.3 27.8
15:50 1013 29.91 843 24.89 24.3 75.8 15 -3.5 25.7
15:55 1013 29.91 843 24.89 24.5 76.1 15 -3.8 25.1
16:00 1013 29.91 842 24.86 24.9 76.9 15 -3.5 25.8
16:05 1013 29.91 842 24.86 24.4 76 15 -3.4 26
16:10 1013 29.91 842 24.86 24.5 76.1 14 -4.3 24.3
16:15 1013 29.91 842 24.86 24.7 76.4 14 -4 24.8
16:20 1013 29.91 842 24.86 25 76.9 14 -4.3 24.3
16:25 1013 29.91 842 24.86 24.6 76.3 15 -3.8 25.2
16:30 1013 29.91 842 24.86 24.6 76.3 14 -4.3 24.3
16:35 1013 29.91 842 24.86 24.7 76.4 14 -4.4 24.1
16:40 1013 29.91 842 24.86 24.2 75.6 14 -4.7 23.5
16:45 1013 29.91 842 24.86 23.9 75 14 -4.8 23.4
16:50 1013 29.91 842 24.86 24.6 76.3 13 -5.2 22.7
16:55 1013 29.91 842 24.86 24.2 75.5 14 -4.6 23.7
17:00 1013 29.91 842 24.86 24.9 76.9 13 -4.8 23.4
17:05 1013 29.91 842 24.86 25.3 77.6 13 -4.6 23.6
17:10 1013 29.91 842 24.86 25.4 77.8 14 -3.8 25.2
17:15 1013 29.91 842 24.86 25.3 77.6 14 -4.2 24.5
17:20 1013 29.91 842 24.86 25.1 77.1 14 -4.5 23.9
17:25 1013 29.91 842 24.86 25 76.9 14 -4.2 24.4
17:30 1013 29.91 842 24.86 25 76.9 14 -4.2 24.4
17:35 1013 29.91 842 24.86 24.7 76.4 15 -3.8 25.1
17:40 1013 29.91 842 24.86 24.7 76.4 13 -5 22.9
17:45 1013 29.91 842 24.86 24.6 76.3 14 -4.7 23.6
17:50 1013 29.91 842 24.86 23.8 74.9 14 -5.1 22.8
17:55 1013 29.91 842 24.86 23.5 74.4 15 -4.5 24
18:00 1013 29.91 842 24.86 23.2 73.7 14 -5.3 22.5
18:05 1013 29.91 842 24.86 23.3 73.9 15 -4.8 23.3
18:10 1013 29.91 842 24.86 23.7 74.6 15 -4.7 23.6
18:15 1013 29.91 842 24.86 23.9 75 15 -4 24.8
18:20 1013 29.91 842 24.86 24 75.2 14 -4.5 23.9
18:25 1013 29.91 842 24.86 24.1 75.3 15 -3.7 25.4
18:30 1013 29.91 842 24.86 23.5 74.4 19 -1.4 29.5
18:35 1013 29.91 842 24.86 22.9 73.2 22 0.5 32.9
18:40 1013 29.91 842 24.86 22.2 71.9 20 -1.5 29.4
18:45 1013 29.91 843 24.89 21.4 70.5 21 -1.4 29.5
18:50 1013 29.91 843 24.89 21 69.7 23 -0.9 30.3
18:55 1013 29.91 843 24.89 20.9 69.6 23 -1 30.3
19:00 1013 29.91 843 24.89 20.6 69 23 -1.3 29.7
19:05 1014 29.94 843 24.89 20.3 68.5 24 -0.9 30.3
19:10 1014 29.94 843 24.89 20.3 68.6 25 -0.4 31.3
19:15 1014 29.94 843 24.89 20.3 68.6 23 -1.2 29.9
19:20 1014 29.94 843 24.89 20.3 68.5 24 -1 30.2
19:25 1014 29.94 843 24.89 20.2 68.4 24 -1.1 30.1
19:30 1014 29.94 843 24.89 19.9 67.9 23 -1.4 29.4
19:35 1014 29.94 843 24.89 19.9 67.9 24 -1.3 29.7
19:40 1014 29.94 843 24.89 19.9 67.8 24 -1.3 29.6
19:45 1014 29.94 843 24.89 19.9 67.7 23 -1.8 28.8
19:50 1014 29.94 843 24.89 19.7 67.5 23 -2 28.5
19:55 1014 29.94 844 24.92 19.5 67.2 23 -2.2 28
20:00 1015 29.97 844 24.92 19.3 66.8 23 -2.2 28.1
20:05 1015 29.97 844 24.92 19.1 66.4 24 -1.9 28.7
20:10 1015 29.97 844 24.92 18.9 66 24 -1.8 28.8
20:15 1015 29.97 844 24.92 18.7 65.6 25 -1.3 29.6
20:20 1015 29.97 844 24.92 18.6 65.4 24 -2 28.4
20:25 1015 29.97 844 24.92 18.3 64.9 25 -2 28.4
20:30 1015 29.97 844 24.92 18.1 64.6 26 -1.6 29.1
20:35 1015 29.97 844 24.92 18 64.3 26 -1.5 29.4
20:40 1015 29.97 844 24.92 17.8 64 27 -1.1 29.9
20:45 1015 29.97 844 24.92 17.5 63.5 28 -1.1 30
20:50 1015 29.97 844 24.92 17.3 63.2 28 -1.5 29.3
20:55 1015 29.97 844 24.92 17.2 62.9 29 -1.1 30
21:00 1015 29.97 845 24.95 16.8 62.2 30 -0.9 30.3
21:05 1016 30 845 24.95 16.4 61.5 31 -0.6 30.9
21:10 1016 30 845 24.95 15.9 60.6 30 -1.4 29.4
21:15 1016 30 845 24.95 15.9 60.7 33 -0.2 31.6
21:20 1016 30 845 24.95 15.9 60.5 40 2.4 36.4
21:25 1016 30 845 24.95 16.1 61 35 0.9 33.6
21:30 1016 30 845 24.95 16.3 61.4 36 1.2 34.2
21:35 1016 30 845 24.95 16.2 61.2 37 1.8 35.3
21:40 1016 30 845 24.95 15.9 60.6 42 3 37.4
21:45 1016 30 845 24.95 15.7 60.3 40 2.1 35.8
21:50 1016 30 845 24.95 15.7 60.2 41 2.4 36.3
21:55 1016 30 845 24.95 15.5 59.9 41 2.3 36.2
22:00 1016 30 845 24.95 15.5 60 40 2 35.6
22:05 1016 30 845 24.95 15.7 60.2 40 2.4 36.3
22:10 1016 30 845 24.95 15.6 60.1 41 2.6 36.7
22:15 1016 30 845 24.95 15.5 59.9 43 3.2 37.7
22:20 1016 30 845 24.95 15.2 59.4 38 1.3 34.3
22:25 1016 30 845 24.95 15 59 39 1.1 34
22:30 1016 30 845 24.95 14.7 58.5 37 0.5 32.8
22:35 1016 30 845 24.95 14.5 58.2 39 1 33.8
22:40 1016 30 845 24.95 14.2 57.5 40 1 33.8
22:45 1016 30 845 24.95 13.9 56.9 40 0.4 32.7
22:50 1016 30 845 24.95 13.8 56.8 39 0.1 32.1
22:55 1016 30 845 24.95 13.9 57 38 -0.1 31.9
23:00 1016 30 846 24.98 13.9 57 38 -0.2 31.6
23:05 1016 30 846 24.98 13.8 56.9 38 -0.1 31.8
23:10 1016 30 846 24.98 13.8 56.8 39 0.1 32.1
23:15 1016 30 846 24.98 13.7 56.6 38 -0.2 31.6
23:20 1016 30 846 24.98 13.8 56.8 36 -0.8 30.5
23:25 1016 30 846 24.98 13.9 57 36 -0.7 30.7
23:30 1016 30 846 24.98 13.6 56.6 37 -0.5 31
23:35 1016 30 846 24.98 13.4 56.2 37 -0.8 30.5
23:40 1017 30.03 846 24.98 13.4 56.1 37 -0.9 30.4
23:45 1017 30.03 846 24.98 13.3 56 36 -1.4 29.5
23:50 1017 30.03 846 24.98 13.2 55.8 36 -1.3 29.7
23:55 1017 30.03 846 24.98 12.9 55.2 37 -1.4 29.4
24:00 1017 30.03 846 24.98 12.7 54.8 37 -1.7 28.9